sensor_id;sensor_type;location;lat;lon;timestamp;temperature;humidity
42141;DHT22;27809;51.864;5.646;2023-07-31T00:01:19;15.00;99.90
42141;DHT22;27809;51.864;5.646;2023-07-31T00:03:45;15.00;99.90
42141;DHT22;27809;51.864;5.646;2023-07-31T00:06:11;15.00;99.90
42141;DHT22;27809;51.864;5.646;2023-07-31T00:08:36;15.00;99.90
42141;DHT22;27809;51.864;5.646;2023-07-31T00:11:02;15.00;99.90
42141;DHT22;27809;51.864;5.646;2023-07-31T00:13:27;15.10;99.90
42141;DHT22;27809;51.864;5.646;2023-07-31T00:15:53;15.10;99.90
42141;DHT22;27809;51.864;5.646;2023-07-31T00:18:18;15.20;99.90
42141;DHT22;27809;51.864;5.646;2023-07-31T00:20:44;15.30;99.90
42141;DHT22;27809;51.864;5.646;2023-07-31T00:23:09;15.40;99.90
42141;DHT22;27809;51.864;5.646;2023-07-31T00:25:35;15.50;99.90
42141;DHT22;27809;51.864;5.646;2023-07-31T00:28:00;15.60;99.90
42141;DHT22;27809;51.864;5.646;2023-07-31T00:30:26;15.70;99.90
42141;DHT22;27809;51.864;5.646;2023-07-31T00:32:52;15.80;99.90
42141;DHT22;27809;51.864;5.646;2023-07-31T00:35:17;15.90;99.90
42141;DHT22;27809;51.864;5.646;2023-07-31T00:37:43;16.00;99.90
42141;DHT22;27809;51.864;5.646;2023-07-31T00:40:09;16.00;99.90
42141;DHT22;27809;51.864;5.646;2023-07-31T00:42:34;16.00;99.90
42141;DHT22;27809;51.864;5.646;2023-07-31T00:45:00;16.00;99.90
42141;DHT22;27809;51.864;5.646;2023-07-31T00:47:25;16.00;99.90
42141;DHT22;27809;51.864;5.646;2023-07-31T00:49:52;16.00;99.90
42141;DHT22;27809;51.864;5.646;2023-07-31T00:52:18;16.10;99.90
42141;DHT22;27809;51.864;5.646;2023-07-31T00:54:44;16.10;99.90
42141;DHT22;27809;51.864;5.646;2023-07-31T00:57:10;16.10;99.90
42141;DHT22;27809;51.864;5.646;2023-07-31T00:59:35;16.10;99.90
42141;DHT22;27809;51.864;5.646;2023-07-31T01:02:01;16.10;99.90
42141;DHT22;27809;51.864;5.646;2023-07-31T01:04:27;16.10;99.90
42141;DHT22;27809;51.864;5.646;2023-07-31T01:06:58;16.10;99.90
42141;DHT22;27809;51.864;5.646;2023-07-31T01:09:40;16.10;99.90
42141;DHT22;27809;51.864;5.646;2023-07-31T01:12:09;16.10;99.90
42141;DHT22;27809;51.864;5.646;2023-07-31T01:14:38;16.10;99.90
42141;DHT22;27809;51.864;5.646;2023-07-31T01:17:04;16.00;99.90
42141;DHT22;27809;51.864;5.646;2023-07-31T01:19:29;16.10;99.90
42141;DHT22;27809;51.864;5.646;2023-07-31T01:28:02;16.10;99.90
42141;DHT22;27809;51.864;5.646;2023-07-31T01:30:34;16.10;99.90
42141;DHT22;27809;51.864;5.646;2023-07-31T01:33:03;16.10;99.90
42141;DHT22;27809;51.864;5.646;2023-07-31T01:35:37;16.10;99.90
42141;DHT22;27809;51.864;5.646;2023-07-31T01:38:03;16.10;99.90
42141;DHT22;27809;51.864;5.646;2023-07-31T01:40:29;16.10;99.90
42141;DHT22;27809;51.864;5.646;2023-07-31T01:42:55;16.00;99.90
42141;DHT22;27809;51.864;5.646;2023-07-31T01:45:20;16.00;99.90
42141;DHT22;27809;51.864;5.646;2023-07-31T01:47:46;16.10;99.90
42141;DHT22;27809;51.864;5.646;2023-07-31T01:50:12;16.10;99.90
42141;DHT22;27809;51.864;5.646;2023-07-31T01:52:37;16.10;99.90
42141;DHT22;27809;51.864;5.646;2023-07-31T01:55:03;16.10;99.90
42141;DHT22;27809;51.864;5.646;2023-07-31T01:57:29;16.10;99.90
42141;DHT22;27809;51.864;5.646;2023-07-31T01:59:54;16.10;99.90
42141;DHT22;27809;51.864;5.646;2023-07-31T02:02:20;16.10;99.90
42141;DHT22;27809;51.864;5.646;2023-07-31T02:04:46;16.10;99.90
42141;DHT22;27809;51.864;5.646;2023-07-31T02:07:12;16.10;99.90
42141;DHT22;27809;51.864;5.646;2023-07-31T02:09:37;16.10;99.90
42141;DHT22;27809;51.864;5.646;2023-07-31T02:12:03;16.10;99.90
42141;DHT22;27809;51.864;5.646;2023-07-31T02:14:29;16.10;99.90
42141;DHT22;27809;51.864;5.646;2023-07-31T02:16:54;16.10;99.90
42141;DHT22;27809;51.864;5.646;2023-07-31T02:19:20;16.10;99.90
42141;DHT22;27809;51.864;5.646;2023-07-31T02:21:45;16.10;99.90
42141;DHT22;27809;51.864;5.646;2023-07-31T02:24:11;16.10;99.90
42141;DHT22;27809;51.864;5.646;2023-07-31T02:26:36;16.10;99.90
42141;DHT22;27809;51.864;5.646;2023-07-31T02:29:02;16.10;99.90
42141;DHT22;27809;51.864;5.646;2023-07-31T02:31:27;16.10;99.90
42141;DHT22;27809;51.864;5.646;2023-07-31T02:33:53;16.10;99.90
42141;DHT22;27809;51.864;5.646;2023-07-31T02:36:18;16.10;99.90
42141;DHT22;27809;51.864;5.646;2023-07-31T02:38:44;16.10;99.90
42141;DHT22;27809;51.864;5.646;2023-07-31T02:41:09;16.20;99.90
42141;DHT22;27809;51.864;5.646;2023-07-31T02:43:35;16.10;99.90
42141;DHT22;27809;51.864;5.646;2023-07-31T02:46:00;16.10;99.90
42141;DHT22;27809;51.864;5.646;2023-07-31T02:48:26;16.20;99.90
42141;DHT22;27809;51.864;5.646;2023-07-31T02:50:51;16.10;99.90
42141;DHT22;27809;51.864;5.646;2023-07-31T02:53:17;16.10;99.90
42141;DHT22;27809;51.864;5.646;2023-07-31T02:55:43;16.10;99.90
42141;DHT22;27809;51.864;5.646;2023-07-31T02:58:08;16.10;99.90
42141;DHT22;27809;51.864;5.646;2023-07-31T03:00:33;16.10;99.90
42141;DHT22;27809;51.864;5.646;2023-07-31T03:02:59;16.10;99.90
42141;DHT22;27809;51.864;5.646;2023-07-31T03:05:25;16.10;99.90
42141;DHT22;27809;51.864;5.646;2023-07-31T03:07:50;16.00;99.90
42141;DHT22;27809;51.864;5.646;2023-07-31T03:10:15;16.00;99.90
42141;DHT22;27809;51.864;5.646;2023-07-31T03:12:41;16.00;99.90
42141;DHT22;27809;51.864;5.646;2023-07-31T03:15:07;16.00;99.90
42141;DHT22;27809;51.864;5.646;2023-07-31T03:17:33;16.00;99.90
42141;DHT22;27809;51.864;5.646;2023-07-31T03:19:58;16.00;99.90
42141;DHT22;27809;51.864;5.646;2023-07-31T03:22:24;16.00;99.90
42141;DHT22;27809;51.864;5.646;2023-07-31T03:24:49;15.90;99.90
42141;DHT22;27809;51.864;5.646;2023-07-31T03:27:15;15.90;99.90
42141;DHT22;27809;51.864;5.646;2023-07-31T03:29:40;15.90;99.90
42141;DHT22;27809;51.864;5.646;2023-07-31T03:32:06;15.90;99.90
42141;DHT22;27809;51.864;5.646;2023-07-31T03:34:32;16.00;99.90
42141;DHT22;27809;51.864;5.646;2023-07-31T03:36:58;15.90;99.90
42141;DHT22;27809;51.864;5.646;2023-07-31T03:39:23;15.90;99.90
42141;DHT22;27809;51.864;5.646;2023-07-31T03:41:49;15.90;99.90
42141;DHT22;27809;51.864;5.646;2023-07-31T03:44:14;15.90;99.90
42141;DHT22;27809;51.864;5.646;2023-07-31T03:46:40;15.80;99.90
42141;DHT22;27809;51.864;5.646;2023-07-31T03:49:05;15.80;99.90
42141;DHT22;27809;51.864;5.646;2023-07-31T03:51:31;15.90;99.90
42141;DHT22;27809;51.864;5.646;2023-07-31T03:53:56;15.90;99.90
42141;DHT22;27809;51.864;5.646;2023-07-31T03:56:22;15.80;99.90
42141;DHT22;27809;51.864;5.646;2023-07-31T03:58:48;15.90;99.90
42141;DHT22;27809;51.864;5.646;2023-07-31T04:01:13;15.90;99.90
42141;DHT22;27809;51.864;5.646;2023-07-31T04:03:39;15.90;99.90
42141;DHT22;27809;51.864;5.646;2023-07-31T04:06:04;15.90;99.90
42141;DHT22;27809;51.864;5.646;2023-07-31T04:08:30;15.90;99.90
42141;DHT22;27809;51.864;5.646;2023-07-31T04:10:55;15.90;99.90
42141;DHT22;27809;51.864;5.646;2023-07-31T04:13:22;15.90;99.90
42141;DHT22;27809;51.864;5.646;2023-07-31T04:15:49;15.90;99.90
42141;DHT22;27809;51.864;5.646;2023-07-31T04:18:16;15.90;99.90
42141;DHT22;27809;51.864;5.646;2023-07-31T04:20:41;15.90;99.90
42141;DHT22;27809;51.864;5.646;2023-07-31T04:23:07;15.90;99.90
42141;DHT22;27809;51.864;5.646;2023-07-31T04:25:32;15.90;99.90
42141;DHT22;27809;51.864;5.646;2023-07-31T04:28:00;15.90;99.90
42141;DHT22;27809;51.864;5.646;2023-07-31T04:30:25;15.90;99.90
42141;DHT22;27809;51.864;5.646;2023-07-31T04:32:51;16.00;99.90
42141;DHT22;27809;51.864;5.646;2023-07-31T04:35:16;15.90;99.90
42141;DHT22;27809;51.864;5.646;2023-07-31T04:37:42;16.00;99.90
42141;DHT22;27809;51.864;5.646;2023-07-31T04:40:08;15.90;99.90
42141;DHT22;27809;51.864;5.646;2023-07-31T04:42:33;16.00;99.90
42141;DHT22;27809;51.864;5.646;2023-07-31T04:45:00;15.90;99.90
42141;DHT22;27809;51.864;5.646;2023-07-31T04:47:25;16.00;99.90
42141;DHT22;27809;51.864;5.646;2023-07-31T04:49:51;15.90;99.90
42141;DHT22;27809;51.864;5.646;2023-07-31T04:52:16;16.00;99.90
42141;DHT22;27809;51.864;5.646;2023-07-31T04:54:42;15.90;99.90
42141;DHT22;27809;51.864;5.646;2023-07-31T04:57:07;15.90;99.90
42141;DHT22;27809;51.864;5.646;2023-07-31T04:59:33;15.90;99.90
42141;DHT22;27809;51.864;5.646;2023-07-31T05:01:58;16.00;99.90
42141;DHT22;27809;51.864;5.646;2023-07-31T05:04:24;16.00;99.90
42141;DHT22;27809;51.864;5.646;2023-07-31T05:06:49;16.00;99.90
42141;DHT22;27809;51.864;5.646;2023-07-31T05:09:15;16.00;99.90
42141;DHT22;27809;51.864;5.646;2023-07-31T05:11:40;15.90;99.90
42141;DHT22;27809;51.864;5.646;2023-07-31T05:14:08;15.90;99.90
42141;DHT22;27809;51.864;5.646;2023-07-31T05:16:33;15.90;99.90
42141;DHT22;27809;51.864;5.646;2023-07-31T05:18:59;15.80;99.90
42141;DHT22;27809;51.864;5.646;2023-07-31T05:21:24;15.80;99.90
42141;DHT22;27809;51.864;5.646;2023-07-31T05:23:50;15.80;99.90
42141;DHT22;27809;51.864;5.646;2023-07-31T05:26:15;15.80;99.90
42141;DHT22;27809;51.864;5.646;2023-07-31T05:28:41;15.80;99.90
42141;DHT22;27809;51.864;5.646;2023-07-31T05:31:07;15.80;99.90
42141;DHT22;27809;51.864;5.646;2023-07-31T05:33:32;15.80;99.90
42141;DHT22;27809;51.864;5.646;2023-07-31T05:35:58;15.70;99.90
42141;DHT22;27809;51.864;5.646;2023-07-31T05:38:24;15.70;99.90
42141;DHT22;27809;51.864;5.646;2023-07-31T05:40:49;15.70;99.90
42141;DHT22;27809;51.864;5.646;2023-07-31T05:43:15;15.70;99.90
42141;DHT22;27809;51.864;5.646;2023-07-31T05:45:42;15.70;99.90
42141;DHT22;27809;51.864;5.646;2023-07-31T05:48:07;15.70;99.90
42141;DHT22;27809;51.864;5.646;2023-07-31T05:50:33;15.80;99.90
42141;DHT22;27809;51.864;5.646;2023-07-31T05:52:58;15.70;99.90
42141;DHT22;27809;51.864;5.646;2023-07-31T05:55:25;15.70;99.90
42141;DHT22;27809;51.864;5.646;2023-07-31T05:57:54;15.70;99.90
42141;DHT22;27809;51.864;5.646;2023-07-31T06:00:20;15.70;99.90
42141;DHT22;27809;51.864;5.646;2023-07-31T06:02:46;15.80;99.90
42141;DHT22;27809;51.864;5.646;2023-07-31T06:05:12;15.80;99.90
42141;DHT22;27809;51.864;5.646;2023-07-31T06:07:38;15.80;99.90
42141;DHT22;27809;51.864;5.646;2023-07-31T06:10:04;15.80;99.90
42141;DHT22;27809;51.864;5.646;2023-07-31T06:12:32;15.80;99.90
42141;DHT22;27809;51.864;5.646;2023-07-31T06:14:58;15.80;99.90
42141;DHT22;27809;51.864;5.646;2023-07-31T06:17:23;15.90;99.90
42141;DHT22;27809;51.864;5.646;2023-07-31T06:19:49;15.90;99.90
42141;DHT22;27809;51.864;5.646;2023-07-31T06:22:15;16.00;99.90
42141;DHT22;27809;51.864;5.646;2023-07-31T06:24:41;16.00;99.90
42141;DHT22;27809;51.864;5.646;2023-07-31T06:27:07;16.00;99.90
42141;DHT22;27809;51.864;5.646;2023-07-31T06:29:32;16.10;99.90
42141;DHT22;27809;51.864;5.646;2023-07-31T06:31:58;16.00;99.90
42141;DHT22;27809;51.864;5.646;2023-07-31T06:34:24;16.10;99.90
42141;DHT22;27809;51.864;5.646;2023-07-31T06:36:49;16.10;99.90
42141;DHT22;27809;51.864;5.646;2023-07-31T06:39:15;16.00;99.90
42141;DHT22;27809;51.864;5.646;2023-07-31T06:41:41;16.10;99.90
42141;DHT22;27809;51.864;5.646;2023-07-31T06:44:07;16.10;99.90
42141;DHT22;27809;51.864;5.646;2023-07-31T06:46:32;16.10;99.90
42141;DHT22;27809;51.864;5.646;2023-07-31T06:48:58;16.10;99.90
42141;DHT22;27809;51.864;5.646;2023-07-31T06:51:23;16.20;99.90
42141;DHT22;27809;51.864;5.646;2023-07-31T06:53:49;16.10;99.90
42141;DHT22;27809;51.864;5.646;2023-07-31T06:56:14;16.20;99.90
42141;DHT22;27809;51.864;5.646;2023-07-31T06:58:40;16.20;99.90
42141;DHT22;27809;51.864;5.646;2023-07-31T07:01:05;16.20;99.90
42141;DHT22;27809;51.864;5.646;2023-07-31T07:03:31;16.30;99.90
42141;DHT22;27809;51.864;5.646;2023-07-31T07:05:57;16.30;99.90
42141;DHT22;27809;51.864;5.646;2023-07-31T07:08:24;16.30;99.90
42141;DHT22;27809;51.864;5.646;2023-07-31T07:10:49;16.30;99.90
42141;DHT22;27809;51.864;5.646;2023-07-31T07:13:15;16.40;99.90
42141;DHT22;27809;51.864;5.646;2023-07-31T07:15:41;16.40;99.90
42141;DHT22;27809;51.864;5.646;2023-07-31T07:18:06;16.40;99.90
42141;DHT22;27809;51.864;5.646;2023-07-31T07:20:32;16.40;99.90
42141;DHT22;27809;51.864;5.646;2023-07-31T07:22:58;16.40;99.90
42141;DHT22;27809;51.864;5.646;2023-07-31T07:25:23;16.40;99.90
42141;DHT22;27809;51.864;5.646;2023-07-31T07:27:49;16.40;99.90
42141;DHT22;27809;51.864;5.646;2023-07-31T07:30:14;16.50;99.90
42141;DHT22;27809;51.864;5.646;2023-07-31T07:32:40;16.40;99.90
42141;DHT22;27809;51.864;5.646;2023-07-31T07:35:06;16.40;99.90
42141;DHT22;27809;51.864;5.646;2023-07-31T07:37:32;16.40;99.90
42141;DHT22;27809;51.864;5.646;2023-07-31T07:39:57;16.40;99.90
42141;DHT22;27809;51.864;5.646;2023-07-31T07:42:23;16.40;99.90
42141;DHT22;27809;51.864;5.646;2023-07-31T07:44:49;16.40;99.90
42141;DHT22;27809;51.864;5.646;2023-07-31T07:47:14;16.50;99.90
42141;DHT22;27809;51.864;5.646;2023-07-31T07:49:40;16.40;99.90
42141;DHT22;27809;51.864;5.646;2023-07-31T07:52:06;16.40;99.90
42141;DHT22;27809;51.864;5.646;2023-07-31T07:54:31;16.50;99.90
42141;DHT22;27809;51.864;5.646;2023-07-31T07:56:57;16.50;99.90
42141;DHT22;27809;51.864;5.646;2023-07-31T07:59:23;16.50;99.90
42141;DHT22;27809;51.864;5.646;2023-07-31T08:01:48;16.60;99.90
42141;DHT22;27809;51.864;5.646;2023-07-31T08:04:14;16.70;99.90
42141;DHT22;27809;51.864;5.646;2023-07-31T08:06:39;16.60;99.90
42141;DHT22;27809;51.864;5.646;2023-07-31T08:09:05;16.70;99.90
42141;DHT22;27809;51.864;5.646;2023-07-31T08:11:32;16.70;99.90
42141;DHT22;27809;51.864;5.646;2023-07-31T08:13:58;16.60;99.90
42141;DHT22;27809;51.864;5.646;2023-07-31T08:16:23;16.70;99.90
42141;DHT22;27809;51.864;5.646;2023-07-31T08:18:49;16.70;99.90
42141;DHT22;27809;51.864;5.646;2023-07-31T08:21:14;16.60;99.90
42141;DHT22;27809;51.864;5.646;2023-07-31T08:23:40;16.70;99.90
42141;DHT22;27809;51.864;5.646;2023-07-31T08:26:06;16.60;99.90
42141;DHT22;27809;51.864;5.646;2023-07-31T08:28:31;16.60;99.90
42141;DHT22;27809;51.864;5.646;2023-07-31T08:30:57;16.70;99.90
42141;DHT22;27809;51.864;5.646;2023-07-31T08:33:22;16.80;99.90
42141;DHT22;27809;51.864;5.646;2023-07-31T08:35:48;18.80;99.90
42141;DHT22;27809;51.864;5.646;2023-07-31T08:38:14;18.70;99.90
42141;DHT22;27809;51.864;5.646;2023-07-31T08:40:39;17.60;99.90
42141;DHT22;27809;51.864;5.646;2023-07-31T08:43:05;17.30;99.90
42141;DHT22;27809;51.864;5.646;2023-07-31T08:45:32;17.20;99.90
42141;DHT22;27809;51.864;5.646;2023-07-31T08:47:58;17.10;99.90
42141;DHT22;27809;51.864;5.646;2023-07-31T08:50:24;17.00;99.90
42141;DHT22;27809;51.864;5.646;2023-07-31T08:52:51;17.00;99.90
42141;DHT22;27809;51.864;5.646;2023-07-31T08:55:17;17.00;99.90
42141;DHT22;27809;51.864;5.646;2023-07-31T08:57:44;16.90;99.90
42141;DHT22;27809;51.864;5.646;2023-07-31T09:00:11;16.90;99.90
42141;DHT22;27809;51.864;5.646;2023-07-31T09:02:48;16.90;99.90
42141;DHT22;27809;51.864;5.646;2023-07-31T09:05:17;16.80;99.90
42141;DHT22;27809;51.864;5.646;2023-07-31T09:07:45;16.80;99.90
42141;DHT22;27809;51.864;5.646;2023-07-31T09:10:12;16.80;99.90
42141;DHT22;27809;51.864;5.646;2023-07-31T09:12:38;16.90;99.90
42141;DHT22;27809;51.864;5.646;2023-07-31T09:15:04;16.90;99.90
42141;DHT22;27809;51.864;5.646;2023-07-31T09:17:35;16.90;99.90
42141;DHT22;27809;51.864;5.646;2023-07-31T09:22:42;16.80;99.90
42141;DHT22;27809;51.864;5.646;2023-07-31T09:28:03;16.90;99.90
42141;DHT22;27809;51.864;5.646;2023-07-31T09:30:29;17.00;99.90
42141;DHT22;27809;51.864;5.646;2023-07-31T09:33:02;17.00;99.90
42141;DHT22;27809;51.864;5.646;2023-07-31T09:35:35;17.00;99.90
42141;DHT22;27809;51.864;5.646;2023-07-31T09:38:05;16.90;99.90
42141;DHT22;27809;51.864;5.646;2023-07-31T09:40:32;17.00;99.90
42141;DHT22;27809;51.864;5.646;2023-07-31T09:43:09;17.10;99.90
42141;DHT22;27809;51.864;5.646;2023-07-31T09:45:37;17.10;99.90
42141;DHT22;27809;51.864;5.646;2023-07-31T09:48:03;17.30;99.90
42141;DHT22;27809;51.864;5.646;2023-07-31T09:50:32;17.30;99.90
42141;DHT22;27809;51.864;5.646;2023-07-31T09:52:57;17.30;99.90
42141;DHT22;27809;51.864;5.646;2023-07-31T09:55:24;17.20;99.90
42141;DHT22;27809;51.864;5.646;2023-07-31T09:57:49;17.20;99.90
42141;DHT22;27809;51.864;5.646;2023-07-31T10:00:17;17.30;99.90
42141;DHT22;27809;51.864;5.646;2023-07-31T10:02:45;17.40;99.90
42141;DHT22;27809;51.864;5.646;2023-07-31T10:05:14;17.30;99.90
42141;DHT22;27809;51.864;5.646;2023-07-31T10:07:43;17.50;99.90
42141;DHT22;27809;51.864;5.646;2023-07-31T10:10:11;17.60;99.90
42141;DHT22;27809;51.864;5.646;2023-07-31T10:12:37;17.60;99.90
42141;DHT22;27809;51.864;5.646;2023-07-31T10:15:04;17.70;99.90
42141;DHT22;27809;51.864;5.646;2023-07-31T10:17:30;17.80;99.90
42141;DHT22;27809;51.864;5.646;2023-07-31T10:20:00;17.80;99.90
42141;DHT22;27809;51.864;5.646;2023-07-31T10:22:29;17.80;99.90
42141;DHT22;27809;51.864;5.646;2023-07-31T10:24:58;17.90;99.90
42141;DHT22;27809;51.864;5.646;2023-07-31T10:27:24;18.00;99.90
42141;DHT22;27809;51.864;5.646;2023-07-31T10:29:50;18.00;99.90
42141;DHT22;27809;51.864;5.646;2023-07-31T10:32:17;18.00;99.90
42141;DHT22;27809;51.864;5.646;2023-07-31T10:34:43;18.10;99.90
42141;DHT22;27809;51.864;5.646;2023-07-31T10:37:22;18.20;99.90
42141;DHT22;27809;51.864;5.646;2023-07-31T10:42:35;18.30;99.90
42141;DHT22;27809;51.864;5.646;2023-07-31T10:45:04;18.20;99.90
42141;DHT22;27809;51.864;5.646;2023-07-31T10:47:29;18.20;99.90
42141;DHT22;27809;51.864;5.646;2023-07-31T10:52:51;18.20;99.90
42141;DHT22;27809;51.864;5.646;2023-07-31T10:57:55;18.50;99.90
42141;DHT22;27809;51.864;5.646;2023-07-31T11:00:28;18.30;99.90
42141;DHT22;27809;51.864;5.646;2023-07-31T11:03:05;18.20;99.90
42141;DHT22;27809;51.864;5.646;2023-07-31T11:13:28;18.30;99.90
42141;DHT22;27809;51.864;5.646;2023-07-31T11:15:54;18.20;99.90
42141;DHT22;27809;51.864;5.646;2023-07-31T11:18:19;18.30;99.90
42141;DHT22;27809;51.864;5.646;2023-07-31T11:20:45;18.30;99.90
42141;DHT22;27809;51.864;5.646;2023-07-31T11:23:11;18.30;99.90
42141;DHT22;27809;51.864;5.646;2023-07-31T11:25:39;18.30;99.90
42141;DHT22;27809;51.864;5.646;2023-07-31T11:28:12;18.40;99.90
42141;DHT22;27809;51.864;5.646;2023-07-31T11:30:39;18.40;99.90
42141;DHT22;27809;51.864;5.646;2023-07-31T11:33:06;18.40;99.90
42141;DHT22;27809;51.864;5.646;2023-07-31T11:35:33;18.40;99.90
42141;DHT22;27809;51.864;5.646;2023-07-31T11:38:00;18.40;99.90
42141;DHT22;27809;51.864;5.646;2023-07-31T11:40:25;18.50;99.90
42141;DHT22;27809;51.864;5.646;2023-07-31T11:42:58;18.50;99.90
42141;DHT22;27809;51.864;5.646;2023-07-31T11:45:30;18.50;99.90
42141;DHT22;27809;51.864;5.646;2023-07-31T11:47:55;18.50;99.90
42141;DHT22;27809;51.864;5.646;2023-07-31T11:50:23;18.60;99.90
42141;DHT22;27809;51.864;5.646;2023-07-31T11:52:56;18.60;99.90
42141;DHT22;27809;51.864;5.646;2023-07-31T11:55:22;18.70;99.90
42141;DHT22;27809;51.864;5.646;2023-07-31T11:57:48;18.70;99.90
42141;DHT22;27809;51.864;5.646;2023-07-31T12:00:14;18.70;99.90
42141;DHT22;27809;51.864;5.646;2023-07-31T12:02:41;18.70;99.90
42141;DHT22;27809;51.864;5.646;2023-07-31T12:05:11;18.70;99.90
42141;DHT22;27809;51.864;5.646;2023-07-31T12:07:55;18.60;99.90
42141;DHT22;27809;51.864;5.646;2023-07-31T12:10:25;18.60;99.90
42141;DHT22;27809;51.864;5.646;2023-07-31T12:13:04;18.50;99.90
42141;DHT22;27809;51.864;5.646;2023-07-31T12:15:33;18.60;99.90
42141;DHT22;27809;51.864;5.646;2023-07-31T12:17:59;18.50;99.90
42141;DHT22;27809;51.864;5.646;2023-07-31T12:20:25;18.50;99.90
42141;DHT22;27809;51.864;5.646;2023-07-31T12:22:51;18.30;99.90
42141;DHT22;27809;51.864;5.646;2023-07-31T12:25:16;18.20;99.90
42141;DHT22;27809;51.864;5.646;2023-07-31T12:27:45;18.20;99.90
42141;DHT22;27809;51.864;5.646;2023-07-31T12:30:27;18.10;99.90
42141;DHT22;27809;51.864;5.646;2023-07-31T12:32:53;17.90;99.90
42141;DHT22;27809;51.864;5.646;2023-07-31T12:35:18;18.00;99.90
42141;DHT22;27809;51.864;5.646;2023-07-31T12:37:44;17.90;99.90
42141;DHT22;27809;51.864;5.646;2023-07-31T12:40:10;17.90;99.90
42141;DHT22;27809;51.864;5.646;2023-07-31T12:42:35;18.00;99.90
42141;DHT22;27809;51.864;5.646;2023-07-31T12:45:01;19.90;99.90
42141;DHT22;27809;51.864;5.646;2023-07-31T12:47:26;18.70;99.90
42141;DHT22;27809;51.864;5.646;2023-07-31T12:49:52;18.40;99.90
42141;DHT22;27809;51.864;5.646;2023-07-31T12:52:17;18.40;99.90
42141;DHT22;27809;51.864;5.646;2023-07-31T12:54:43;18.50;99.90
42141;DHT22;27809;51.864;5.646;2023-07-31T12:57:08;18.40;99.90
42141;DHT22;27809;51.864;5.646;2023-07-31T12:59:34;18.30;99.90
42141;DHT22;27809;51.864;5.646;2023-07-31T13:01:59;18.30;99.90
42141;DHT22;27809;51.864;5.646;2023-07-31T13:04:25;18.30;99.90
42141;DHT22;27809;51.864;5.646;2023-07-31T13:06:51;18.20;99.90
42141;DHT22;27809;51.864;5.646;2023-07-31T13:09:16;18.20;99.90
42141;DHT22;27809;51.864;5.646;2023-07-31T13:11:43;18.10;99.90
42141;DHT22;27809;51.864;5.646;2023-07-31T13:14:08;18.20;99.90
42141;DHT22;27809;51.864;5.646;2023-07-31T13:16:34;18.20;99.90
42141;DHT22;27809;51.864;5.646;2023-07-31T13:18:59;18.20;99.90
42141;DHT22;27809;51.864;5.646;2023-07-31T13:21:25;18.20;99.90
42141;DHT22;27809;51.864;5.646;2023-07-31T13:23:50;18.20;99.90
42141;DHT22;27809;51.864;5.646;2023-07-31T13:26:16;18.30;99.90
42141;DHT22;27809;51.864;5.646;2023-07-31T13:28:41;18.30;99.90
42141;DHT22;27809;51.864;5.646;2023-07-31T13:31:07;18.30;99.90
42141;DHT22;27809;51.864;5.646;2023-07-31T13:33:32;18.30;99.90
42141;DHT22;27809;51.864;5.646;2023-07-31T13:35:58;18.30;99.90
42141;DHT22;27809;51.864;5.646;2023-07-31T13:38:23;18.30;99.90
42141;DHT22;27809;51.864;5.646;2023-07-31T13:40:48;18.40;99.90
42141;DHT22;27809;51.864;5.646;2023-07-31T13:43:14;18.40;99.90
42141;DHT22;27809;51.864;5.646;2023-07-31T13:45:39;18.40;99.90
42141;DHT22;27809;51.864;5.646;2023-07-31T13:48:05;18.50;99.90
42141;DHT22;27809;51.864;5.646;2023-07-31T13:50:31;18.50;99.90
42141;DHT22;27809;51.864;5.646;2023-07-31T13:52:56;18.50;99.90
42141;DHT22;27809;51.864;5.646;2023-07-31T13:55:22;18.50;99.90
42141;DHT22;27809;51.864;5.646;2023-07-31T13:57:47;18.40;99.90
42141;DHT22;27809;51.864;5.646;2023-07-31T14:00:14;18.40;99.90
42141;DHT22;27809;51.864;5.646;2023-07-31T14:02:39;18.40;99.90
42141;DHT22;27809;51.864;5.646;2023-07-31T14:05:05;18.30;99.90
42141;DHT22;27809;51.864;5.646;2023-07-31T14:07:32;18.30;99.90
42141;DHT22;27809;51.864;5.646;2023-07-31T14:09:57;18.40;99.90
42141;DHT22;27809;51.864;5.646;2023-07-31T14:12:23;18.30;99.90
42141;DHT22;27809;51.864;5.646;2023-07-31T14:14:48;18.40;99.90
42141;DHT22;27809;51.864;5.646;2023-07-31T14:17:14;18.40;99.90
42141;DHT22;27809;51.864;5.646;2023-07-31T14:19:39;18.40;99.90
42141;DHT22;27809;51.864;5.646;2023-07-31T14:22:05;18.30;99.90
42141;DHT22;27809;51.864;5.646;2023-07-31T14:24:30;18.30;99.90
42141;DHT22;27809;51.864;5.646;2023-07-31T14:26:56;18.20;99.90
42141;DHT22;27809;51.864;5.646;2023-07-31T14:29:21;18.10;99.90
42141;DHT22;27809;51.864;5.646;2023-07-31T14:31:47;18.10;99.90
42141;DHT22;27809;51.864;5.646;2023-07-31T14:34:12;18.00;99.90
42141;DHT22;27809;51.864;5.646;2023-07-31T14:36:38;18.00;99.90
42141;DHT22;27809;51.864;5.646;2023-07-31T14:39:04;18.00;99.90
42141;DHT22;27809;51.864;5.646;2023-07-31T14:41:29;18.00;99.90
42141;DHT22;27809;51.864;5.646;2023-07-31T14:43:55;17.90;99.90
42141;DHT22;27809;51.864;5.646;2023-07-31T14:46:20;17.90;99.90
42141;DHT22;27809;51.864;5.646;2023-07-31T14:48:46;17.90;99.90
42141;DHT22;27809;51.864;5.646;2023-07-31T14:51:11;18.10;99.90
42141;DHT22;27809;51.864;5.646;2023-07-31T14:53:37;18.00;99.90
42141;DHT22;27809;51.864;5.646;2023-07-31T14:56:02;18.00;99.90
42141;DHT22;27809;51.864;5.646;2023-07-31T14:58:28;17.90;99.90
42141;DHT22;27809;51.864;5.646;2023-07-31T15:00:53;18.00;99.90
42141;DHT22;27809;51.864;5.646;2023-07-31T15:03:19;17.90;99.90
42141;DHT22;27809;51.864;5.646;2023-07-31T15:05:44;17.90;99.90
42141;DHT22;27809;51.864;5.646;2023-07-31T15:08:10;18.00;99.90
42141;DHT22;27809;51.864;5.646;2023-07-31T15:10:35;17.90;99.90
42141;DHT22;27809;51.864;5.646;2023-07-31T15:13:01;17.90;99.90
42141;DHT22;27809;51.864;5.646;2023-07-31T15:15:27;17.90;99.90
42141;DHT22;27809;51.864;5.646;2023-07-31T15:17:52;17.90;99.90
42141;DHT22;27809;51.864;5.646;2023-07-31T15:20:18;17.90;99.90
42141;DHT22;27809;51.864;5.646;2023-07-31T15:22:44;17.90;99.90
42141;DHT22;27809;51.864;5.646;2023-07-31T15:25:09;17.90;99.90
42141;DHT22;27809;51.864;5.646;2023-07-31T15:27:35;17.90;99.90
42141;DHT22;27809;51.864;5.646;2023-07-31T15:30:00;17.90;99.90
42141;DHT22;27809;51.864;5.646;2023-07-31T15:32:26;17.80;99.90
42141;DHT22;27809;51.864;5.646;2023-07-31T15:34:52;17.80;99.90
42141;DHT22;27809;51.864;5.646;2023-07-31T15:37:17;17.80;99.90
42141;DHT22;27809;51.864;5.646;2023-07-31T15:39:43;17.90;99.90
42141;DHT22;27809;51.864;5.646;2023-07-31T15:42:09;17.90;99.90
42141;DHT22;27809;51.864;5.646;2023-07-31T15:44:34;17.90;99.90
42141;DHT22;27809;51.864;5.646;2023-07-31T15:47:00;18.10;99.90
42141;DHT22;27809;51.864;5.646;2023-07-31T16:01:57;19.00;99.90
42141;DHT22;27809;51.864;5.646;2023-07-31T16:04:22;18.00;99.90